createdAt,value
2023-09-20T00:02:19.163Z,4.50
2023-09-20T00:04:49.508Z,4.60
2023-09-20T00:07:17.960Z,4.00
2023-09-20T00:09:46.042Z,3.50
2023-09-20T00:12:14.020Z,3.50
2023-09-20T00:14:42.054Z,3.30
2023-09-20T00:17:10.105Z,2.70
2023-09-20T00:19:41.163Z,3.50
2023-09-20T00:22:12.205Z,2.60
2023-09-20T00:24:40.638Z,2.70
2023-09-20T00:27:09.734Z,2.90
2023-09-20T00:29:39.157Z,2.30
2023-09-20T00:32:08.649Z,2.50
2023-09-20T00:34:36.980Z,2.60
2023-09-20T00:37:05.330Z,1.70
2023-09-20T00:39:33.320Z,2.20
2023-09-20T00:42:01.299Z,2.30
2023-09-20T00:44:30.128Z,2.60
2023-09-20T00:46:58.238Z,2.00
2023-09-20T00:49:26.422Z,2.30
2023-09-20T00:51:55.120Z,2.10
2023-09-20T00:54:24.232Z,2.30
2023-09-20T00:56:52.522Z,2.20
2023-09-20T00:59:23.177Z,2.60
2023-09-20T01:01:51.530Z,2.50
2023-09-20T01:04:20.062Z,2.10
2023-09-20T01:06:51.682Z,2.70
2023-09-20T01:09:19.905Z,2.60
2023-09-20T01:11:47.976Z,3.10
2023-09-20T01:14:15.989Z,3.00
2023-09-20T01:16:43.993Z,3.20
2023-09-20T01:19:12.040Z,3.10
2023-09-20T01:21:48.052Z,3.50
2023-09-20T01:24:18.605Z,3.80
2023-09-20T01:26:49.593Z,4.10
2023-09-20T01:29:18.633Z,3.50
2023-09-20T01:31:48.482Z,3.80
2023-09-20T01:34:16.575Z,3.30
2023-09-20T01:36:44.649Z,3.60
2023-09-20T01:39:13.488Z,3.60
2023-09-20T01:41:41.816Z,4.10
2023-09-20T01:44:10.088Z,3.20
2023-09-20T01:46:38.395Z,2.90
2023-09-20T01:49:06.908Z,3.20
2023-09-20T01:51:35.393Z,3.00
2023-09-20T01:54:05.111Z,3.30
2023-09-20T01:56:33.349Z,3.10
2023-09-20T01:59:01.555Z,3.50
2023-09-20T02:01:30.502Z,3.50
2023-09-20T02:03:58.515Z,2.90
2023-09-20T02:06:27.362Z,2.70
2023-09-20T02:08:55.353Z,2.30
2023-09-20T02:11:23.440Z,2.80
2023-09-20T02:13:51.689Z,2.80
2023-09-20T02:16:19.818Z,2.80
2023-09-20T02:18:49.532Z,2.60
2023-09-20T02:21:17.650Z,3.00
2023-09-20T02:23:46.039Z,3.10
2023-09-20T02:26:14.098Z,2.40
2023-09-20T02:28:42.354Z,2.10
2023-09-20T02:31:12.998Z,3.10
2023-09-20T02:33:41.084Z,2.60
2023-09-20T02:36:11.304Z,3.10
2023-09-20T02:38:39.495Z,2.40
2023-09-20T02:41:09.317Z,3.20
2023-09-20T02:43:37.715Z,3.00
2023-09-20T02:46:07.508Z,2.20
2023-09-20T02:48:35.826Z,3.00
2023-09-20T02:51:06.415Z,3.00
2023-09-20T02:53:37.110Z,3.20
2023-09-20T02:56:06.681Z,3.10
2023-09-20T02:58:38.282Z,3.20
2023-09-20T03:01:09.781Z,3.10
2023-09-20T03:03:38.676Z,3.10
2023-09-20T03:06:11.052Z,3.20
2023-09-20T03:08:45.869Z,3.00
2023-09-20T03:11:23.126Z,2.70
2023-09-20T03:13:51.731Z,3.30
2023-09-20T03:16:20.598Z,3.00
2023-09-20T03:18:51.628Z,3.50
2023-09-20T03:21:20.666Z,3.60
2023-09-20T03:23:49.403Z,2.50
2023-09-20T03:26:17.862Z,3.20
2023-09-20T03:28:47.910Z,3.80
2023-09-20T03:31:18.626Z,2.70
2023-09-20T03:36:20.161Z,3.00
2023-09-20T03:38:49.775Z,2.50
2023-09-20T03:41:18.350Z,2.50
2023-09-20T03:43:47.076Z,2.40
2023-09-20T03:46:15.892Z,2.50
2023-09-20T03:48:44.814Z,3.10
2023-09-20T03:51:16.592Z,3.30
2023-09-20T03:53:44.826Z,2.80
2023-09-20T03:56:13.260Z,2.50
2023-09-20T03:58:41.641Z,3.10
2023-09-20T04:05:34.762Z,2.80
2023-09-20T04:08:07.805Z,2.80
2023-09-20T04:10:36.423Z,3.10
2023-09-20T04:13:05.210Z,2.90
2023-09-20T04:15:34.577Z,3.40
2023-09-20T04:18:09.953Z,3.20
2023-09-20T04:20:39.679Z,4.10
2023-09-20T04:23:11.285Z,3.60
2023-09-20T04:25:40.455Z,3.10
2023-09-20T04:28:10.356Z,3.10
2023-09-20T04:34:34.952Z,3.60
2023-09-20T04:37:03.826Z,3.60
2023-09-20T04:39:32.129Z,3.90
2023-09-20T04:42:00.514Z,3.90
2023-09-20T04:44:28.622Z,3.80
2023-09-20T04:46:59.021Z,3.40
2023-09-20T04:49:27.899Z,3.50
2023-09-20T04:52:01.690Z,3.90
2023-09-20T04:54:30.011Z,3.70
2023-09-20T04:56:57.959Z,3.70
2023-09-20T04:59:27.056Z,4.00
2023-09-20T05:01:56.271Z,4.60
2023-09-20T05:04:24.310Z,4.00
2023-09-20T05:06:54.332Z,3.10
2023-09-20T05:09:23.195Z,3.00
2023-09-20T05:11:51.696Z,3.20
2023-09-20T05:14:21.246Z,3.50
2023-09-20T05:16:50.271Z,3.60
2023-09-20T05:19:18.145Z,3.80
2023-09-20T05:21:46.389Z,3.50
2023-09-20T05:24:14.309Z,3.90
2023-09-20T05:26:42.269Z,3.70
2023-09-20T05:29:11.471Z,3.60
2023-09-20T05:31:39.547Z,3.70
2023-09-20T05:34:07.565Z,3.70
2023-09-20T05:36:35.548Z,3.70
2023-09-20T05:39:07.528Z,3.40
2023-09-20T05:41:37.877Z,2.90
2023-09-20T11:04:39.926Z,1.70
2023-09-20T11:07:09.491Z,1.50
2023-09-20T11:09:41.279Z,1.50
2023-09-20T11:12:09.517Z,1.60
2023-09-20T11:14:42.082Z,1.70
2023-09-20T11:17:15.371Z,1.40
2023-09-20T11:19:44.821Z,1.60
2023-09-20T11:22:16.212Z,1.40
2023-09-20T11:24:44.408Z,1.40
2023-09-20T11:27:14.666Z,1.50
2023-09-20T11:29:45.836Z,1.30
2023-09-20T11:32:16.632Z,1.60
2023-09-20T11:34:46.349Z,1.80
2023-09-20T11:37:19.867Z,1.40
2023-09-20T11:39:49.644Z,1.70
2023-09-20T11:42:47.014Z,1.70
2023-09-20T11:45:48.184Z,1.20
2023-09-20T11:48:10.081Z,1.50
2023-09-20T11:50:44.195Z,1.40
2023-09-20T11:53:16.471Z,1.50
2023-09-20T11:55:45.307Z,1.30
2023-09-20T11:58:20.806Z,1.50
2023-09-20T12:00:49.107Z,1.60
2023-09-20T12:03:17.194Z,1.50
2023-09-20T12:05:45.758Z,1.40
2023-09-20T12:08:13.762Z,1.50
2023-09-20T12:10:41.813Z,1.40
2023-09-20T12:13:10.635Z,1.50
2023-09-20T12:15:44.496Z,1.60
2023-09-20T12:18:15.772Z,1.30
2023-09-20T12:20:43.924Z,1.50
2023-09-20T12:23:13.476Z,1.50
2023-09-20T12:25:42.581Z,1.40
2023-09-20T12:28:12.185Z,1.40
2023-09-20T12:30:41.255Z,1.20
2023-09-20T12:33:10.061Z,1.40
2023-09-20T12:35:42.229Z,1.60
2023-09-20T12:38:10.403Z,1.50
2023-09-20T12:40:38.696Z,1.40
2023-09-20T12:43:07.070Z,1.60
2023-09-20T12:45:35.232Z,1.40
2023-09-20T12:48:03.843Z,1.60
2023-09-20T12:50:35.386Z,1.70
2023-09-20T12:53:11.164Z,1.50
2023-09-20T12:55:40.526Z,1.50
2023-09-20T12:58:11.338Z,1.40
2023-09-20T13:00:47.254Z,1.80
2023-09-20T13:03:16.624Z,1.70
2023-09-20T13:05:47.544Z,1.60
2023-09-20T13:08:20.669Z,1.40
2023-09-20T13:10:52.423Z,1.50
2023-09-20T13:13:20.437Z,1.70
2023-09-20T13:15:48.650Z,1.50
2023-09-20T13:18:17.801Z,1.80
2023-09-20T13:20:46.051Z,1.60
2023-09-20T13:23:15.495Z,1.60
2023-09-20T13:25:44.330Z,1.60
2023-09-20T13:28:14.083Z,1.60
2023-09-20T13:30:42.777Z,1.30
2023-09-20T13:33:13.504Z,1.30
2023-09-20T13:35:43.367Z,1.50
2023-09-20T13:38:14.640Z,1.70
2023-09-20T13:40:45.644Z,1.70
2023-09-20T13:43:15.574Z,1.50
2023-09-20T13:45:44.721Z,1.30
2023-09-20T13:48:16.346Z,1.50
2023-09-20T13:50:45.232Z,1.70
2023-09-20T13:53:14.479Z,1.60
2023-09-20T13:55:43.105Z,1.50
2023-09-20T13:58:13.090Z,1.70
2023-09-20T14:00:43.153Z,1.70
2023-09-20T14:03:11.730Z,1.70
2023-09-20T14:05:40.035Z,2.00
2023-09-20T14:08:09.592Z,1.60
2023-09-20T14:11:09.959Z,1.90
2023-09-20T14:13:39.395Z,1.80
2023-09-20T14:16:10.925Z,1.70
2023-09-20T14:18:41.628Z,2.10
2023-09-20T14:21:11.026Z,1.80
2023-09-20T14:23:39.330Z,1.80
2023-09-20T14:26:12.118Z,2.10
2023-09-20T14:28:43.896Z,1.90
2023-09-20T14:31:18.392Z,1.70
2023-09-20T14:33:49.654Z,2.00
2023-09-20T14:36:19.524Z,1.50
2023-09-20T14:38:48.027Z,1.70
2023-09-20T14:41:17.053Z,2.10
2023-09-20T14:43:45.008Z,2.10
2023-09-20T14:46:13.060Z,1.90
2023-09-20T14:48:41.336Z,2.30
2023-09-20T14:51:16.211Z,1.70
2023-09-20T14:53:46.080Z,1.90
2023-09-20T14:56:15.822Z,1.80
2023-09-20T14:58:46.136Z,1.70
2023-09-20T15:01:18.384Z,1.70
2023-09-20T15:03:50.245Z,1.90
2023-09-20T15:06:18.954Z,1.80
2023-09-20T15:08:49.785Z,1.90
2023-09-20T15:11:19.456Z,1.80
2023-09-20T15:13:54.315Z,1.50
2023-09-20T15:16:22.471Z,1.80
2023-09-20T15:18:50.550Z,2.10
2023-09-20T15:21:18.703Z,1.80
2023-09-20T15:24:15.565Z,2.00
2023-09-20T15:26:43.549Z,2.10
2023-09-20T15:29:18.073Z,1.80
2023-09-20T15:31:48.126Z,1.70
2023-09-20T15:34:17.358Z,1.90
2023-09-20T15:36:45.325Z,1.80
2023-09-20T15:39:13.973Z,1.60
2023-09-20T15:41:43.080Z,1.90
2023-09-20T15:44:11.027Z,1.60
2023-09-20T15:46:39.253Z,2.10
2023-09-20T15:49:08.190Z,2.10
2023-09-20T15:51:36.400Z,3.10
2023-09-20T15:54:04.712Z,2.70
2023-09-20T15:56:34.824Z,2.80
2023-09-20T15:59:04.874Z,2.40
2023-09-20T16:01:32.960Z,2.20
2023-09-20T16:04:04.228Z,2.00
2023-09-20T16:06:32.563Z,1.90
2023-09-20T16:09:00.739Z,1.90
2023-09-20T16:11:32.732Z,2.00
2023-09-20T16:14:02.721Z,2.00
2023-09-20T16:16:31.172Z,2.00
2023-09-20T16:19:00.824Z,2.20
2023-09-20T16:21:33.868Z,2.10
2023-09-20T16:24:03.085Z,1.80
2023-09-20T16:26:34.275Z,2.00
2023-09-20T16:29:02.429Z,2.10
2023-09-20T16:31:35.415Z,2.20
2023-09-20T16:34:05.614Z,2.60
2023-09-20T16:36:35.634Z,2.60
2023-09-20T16:39:04.711Z,2.60
2023-09-20T16:41:33.922Z,2.90
2023-09-20T16:44:02.150Z,2.30
2023-09-20T16:46:30.299Z,2.20
2023-09-20T16:48:58.281Z,1.90
2023-09-20T16:51:26.409Z,2.20
2023-09-20T16:53:55.549Z,2.00
2023-09-20T16:56:23.792Z,1.90
2023-09-20T16:58:52.925Z,1.70
2023-09-20T17:01:21.813Z,1.70
2023-09-20T17:03:50.663Z,1.70
2023-09-20T17:06:19.978Z,2.30
2023-09-20T17:08:51.682Z,2.00
2023-09-20T17:11:19.934Z,1.90
2023-09-20T17:13:48.184Z,2.00
2023-09-20T17:16:16.232Z,1.70
2023-09-20T17:18:45.627Z,2.00
2023-09-20T17:21:14.107Z,2.00
2023-09-20T17:23:47.619Z,2.00
2023-09-20T17:26:15.592Z,2.20
2023-09-20T17:28:44.303Z,2.00
2023-09-20T17:31:14.441Z,2.50
2023-09-20T17:33:46.420Z,1.90
2023-09-20T17:36:17.117Z,3.20
2023-09-20T17:38:46.145Z,2.20
2023-09-20T17:41:21.276Z,2.40
2023-09-20T17:43:54.763Z,2.30
2023-09-20T17:46:23.856Z,2.50
2023-09-20T17:48:55.151Z,2.90
2023-09-20T17:51:25.879Z,3.10
2023-09-20T17:53:58.775Z,2.60
2023-09-20T17:56:31.549Z,2.50
2023-09-20T17:58:59.946Z,2.00
2023-09-20T18:01:29.952Z,2.50
2023-09-20T18:04:01.820Z,2.00
2023-09-20T18:06:31.183Z,2.00
2023-09-20T18:08:59.676Z,4.00
2023-09-20T18:11:32.690Z,3.20
2023-09-20T18:14:00.769Z,2.30
2023-09-20T18:16:29.855Z,2.20
2023-09-20T18:18:58.675Z,3.60
2023-09-20T18:21:26.894Z,2.50
2023-09-20T18:23:56.993Z,3.50
2023-09-20T18:26:27.526Z,3.20
2023-09-20T18:28:55.657Z,3.00
2023-09-20T18:31:26.040Z,2.70
2023-09-20T18:33:54.153Z,2.30
2023-09-20T18:36:28.392Z,3.20
2023-09-20T18:38:58.162Z,2.20
2023-09-20T18:41:27.431Z,2.90
2023-09-20T18:43:56.378Z,3.30
2023-09-20T18:46:27.315Z,2.60
2023-09-20T18:48:55.468Z,3.00
2023-09-20T18:51:25.806Z,3.80
2023-09-20T18:53:54.756Z,3.10
2023-09-20T18:56:29.613Z,3.10
2023-09-20T18:59:00.307Z,2.70
2023-09-20T19:04:38.516Z,3.40
2023-09-20T19:07:07.509Z,3.50
2023-09-20T19:09:36.271Z,4.00
2023-09-20T19:12:07.482Z,4.00
2023-09-20T19:14:35.446Z,2.80
2023-09-20T19:17:03.352Z,4.10
2023-09-20T19:19:31.326Z,3.70
2023-09-20T19:21:59.233Z,3.30
2023-09-20T19:24:31.739Z,3.40
2023-09-20T19:27:00.341Z,2.90
2023-09-20T19:29:28.776Z,3.20
2023-09-20T19:31:57.888Z,3.90
2023-09-20T19:34:25.954Z,3.20
2023-09-20T19:36:53.765Z,3.20
2023-09-20T19:39:25.193Z,3.10
2023-09-20T19:41:54.335Z,3.20
2023-09-20T19:44:23.151Z,3.20
2023-09-20T19:46:51.677Z,3.80
2023-09-20T19:49:19.579Z,3.70
2023-09-20T19:51:48.157Z,4.00
2023-09-20T19:54:21.043Z,4.40
2023-09-20T19:56:49.339Z,3.80
2023-09-20T19:59:17.421Z,3.30
2023-09-20T20:01:46.681Z,4.60
2023-09-20T20:04:15.051Z,3.70
2023-09-20T20:06:43.070Z,3.90
2023-09-20T20:09:13.139Z,4.40
2023-09-20T20:11:41.121Z,3.70
2023-09-20T20:14:14.098Z,4.00
2023-09-20T20:16:42.135Z,3.60
2023-09-20T20:19:13.677Z,3.70
2023-09-20T20:21:42.029Z,4.30
2023-09-20T20:24:10.235Z,3.40
2023-09-20T20:26:40.934Z,3.90
2023-09-20T20:29:12.102Z,3.20
2023-09-20T20:31:41.989Z,3.00
2023-09-20T20:34:10.005Z,2.30
2023-09-20T20:36:40.212Z,2.90
2023-09-20T20:39:14.932Z,2.70
2023-09-20T20:41:48.936Z,3.50
2023-09-20T20:44:18.838Z,3.20
2023-09-20T20:47:13.653Z,3.10
2023-09-20T20:49:42.613Z,3.70
2023-09-20T20:52:11.355Z,3.40
2023-09-20T20:54:40.386Z,3.60
2023-09-20T20:57:10.144Z,3.40
2023-09-20T20:59:43.255Z,2.60
2023-09-20T21:02:14.470Z,2.70
2023-09-20T21:04:43.454Z,2.80
2023-09-20T21:07:11.865Z,2.80
2023-09-20T21:09:41.840Z,3.40
2023-09-20T21:12:11.371Z,2.90
2023-09-20T21:14:40.594Z,3.80
2023-09-20T21:17:13.069Z,3.50
2023-09-20T21:19:41.509Z,2.90
2023-09-20T21:22:10.760Z,3.80
2023-09-20T21:24:40.737Z,3.90
2023-09-20T21:27:10.534Z,3.10
2023-09-20T21:29:40.469Z,3.30
2023-09-20T21:32:09.312Z,3.30
2023-09-20T21:34:37.201Z,3.60
2023-09-20T21:37:05.119Z,3.50
2023-09-20T21:39:33.119Z,3.40
2023-09-20T21:42:04.283Z,2.90
2023-09-20T21:44:33.291Z,3.50
2023-09-20T21:47:01.206Z,3.70
2023-09-20T21:49:30.252Z,3.30
2023-09-20T21:52:00.156Z,3.20
2023-09-20T21:54:32.490Z,3.60
2023-09-20T21:57:01.021Z,3.70
2023-09-20T21:59:31.384Z,3.30
2023-09-20T22:02:00.539Z,2.70
2023-09-20T22:04:32.823Z,3.40
2023-09-20T22:07:02.488Z,3.80
2023-09-20T22:09:31.042Z,3.20
2023-09-20T22:11:59.263Z,3.20
2023-09-20T22:14:27.176Z,3.10
2023-09-20T22:16:56.169Z,3.50
2023-09-20T22:22:14.236Z,3.20
2023-09-20T22:24:42.124Z,3.20
2023-09-20T22:27:15.905Z,3.50
2023-09-20T22:29:43.889Z,3.30
2023-09-20T22:32:11.863Z,3.20
2023-09-20T22:34:40.863Z,2.90
2023-09-20T22:37:09.736Z,3.40
2023-09-20T22:39:38.326Z,2.80
2023-09-20T22:42:06.661Z,2.80
2023-09-20T22:44:35.635Z,3.20
2023-09-20T22:47:03.876Z,2.90
2023-09-20T22:49:35.171Z,3.40
2023-09-20T22:52:04.425Z,3.30
2023-09-20T22:54:32.251Z,3.20
2023-09-20T22:57:00.027Z,3.40
2023-09-20T22:59:29.525Z,3.00
2023-09-20T23:01:57.410Z,3.50
2023-09-20T23:04:25.386Z,4.20
2023-09-20T23:06:53.339Z,3.30
2023-09-20T23:09:23.204Z,3.70
2023-09-20T23:11:53.215Z,3.10
2023-09-20T23:14:21.274Z,2.80
2023-09-20T23:16:49.804Z,2.60
2023-09-20T23:19:17.690Z,3.60
2023-09-20T23:21:45.560Z,3.20
2023-09-20T23:24:15.257Z,3.40
2023-09-20T23:26:44.192Z,3.80
2023-09-20T23:29:12.107Z,4.00
2023-09-20T23:31:48.224Z,3.90
2023-09-20T23:34:16.941Z,3.60
2023-09-20T23:36:48.424Z,3.30
2023-09-20T23:39:21.901Z,3.40
2023-09-20T23:41:50.838Z,3.70
2023-09-20T23:44:18.665Z,3.40
2023-09-20T23:46:50.464Z,3.10
2023-09-20T23:49:18.361Z,3.90
2023-09-20T23:51:47.071Z,3.70
2023-09-20T23:54:15.094Z,4.40
2023-09-20T23:56:43.210Z,3.50
2023-09-20T23:59:11.319Z,4.20
